sensor_id;sensor_type;location;lat;lon;timestamp;temperature;humidity
20839;DHT22;10580;51.092;6.828;2022-10-28T00:02:10;17.40;99.90
20839;DHT22;10580;51.092;6.828;2022-10-28T00:04:36;17.40;99.90
20839;DHT22;10580;51.092;6.828;2022-10-28T00:07:02;17.40;99.90
20839;DHT22;10580;51.092;6.828;2022-10-28T00:09:27;17.50;99.90
20839;DHT22;10580;51.092;6.828;2022-10-28T00:11:53;17.50;99.90
20839;DHT22;10580;51.092;6.828;2022-10-28T00:14:18;17.50;99.90
20839;DHT22;10580;51.092;6.828;2022-10-28T00:16:44;17.60;99.90
20839;DHT22;10580;51.092;6.828;2022-10-28T00:19:11;17.60;99.90
20839;DHT22;10580;51.092;6.828;2022-10-28T00:21:39;17.60;99.90
20839;DHT22;10580;51.092;6.828;2022-10-28T00:24:05;17.60;99.90
20839;DHT22;10580;51.092;6.828;2022-10-28T00:26:32;17.60;99.90
20839;DHT22;10580;51.092;6.828;2022-10-28T00:29:04;17.70;99.90
20839;DHT22;10580;51.092;6.828;2022-10-28T00:31:30;17.70;99.90
20839;DHT22;10580;51.092;6.828;2022-10-28T00:33:58;17.70;99.90
20839;DHT22;10580;51.092;6.828;2022-10-28T00:36:29;17.80;99.90
20839;DHT22;10580;51.092;6.828;2022-10-28T00:38:58;17.80;99.90
20839;DHT22;10580;51.092;6.828;2022-10-28T00:41:33;17.80;99.90
20839;DHT22;10580;51.092;6.828;2022-10-28T00:44:02;17.80;99.90
20839;DHT22;10580;51.092;6.828;2022-10-28T00:46:41;17.80;99.90
20839;DHT22;10580;51.092;6.828;2022-10-28T00:49:29;17.80;99.90
20839;DHT22;10580;51.092;6.828;2022-10-28T00:52:06;17.80;99.90
20839;DHT22;10580;51.092;6.828;2022-10-28T00:54:32;17.80;99.90
20839;DHT22;10580;51.092;6.828;2022-10-28T00:57:01;17.80;99.90
20839;DHT22;10580;51.092;6.828;2022-10-28T00:59:35;17.80;99.90
20839;DHT22;10580;51.092;6.828;2022-10-28T01:02:03;17.90;99.90
20839;DHT22;10580;51.092;6.828;2022-10-28T01:04:29;17.90;99.90
20839;DHT22;10580;51.092;6.828;2022-10-28T01:06:56;17.90;99.90
20839;DHT22;10580;51.092;6.828;2022-10-28T01:09:23;18.10;99.90
20839;DHT22;10580;51.092;6.828;2022-10-28T01:17:35;18.30;99.90
20839;DHT22;10580;51.092;6.828;2022-10-28T01:20:41;18.40;99.90
20839;DHT22;10580;51.092;6.828;2022-10-28T01:23:23;18.40;99.90
20839;DHT22;10580;51.092;6.828;2022-10-28T01:26:30;18.40;99.90
20839;DHT22;10580;51.092;6.828;2022-10-28T01:32:43;18.30;99.90
20839;DHT22;10580;51.092;6.828;2022-10-28T01:38:39;18.20;99.90
20839;DHT22;10580;51.092;6.828;2022-10-28T01:42:16;18.20;99.90
20839;DHT22;10580;51.092;6.828;2022-10-28T01:47:02;18.20;99.90
20839;DHT22;10580;51.092;6.828;2022-10-28T01:49:37;18.20;99.90
20839;DHT22;10580;51.092;6.828;2022-10-28T01:52:10;18.30;99.90
20839;DHT22;10580;51.092;6.828;2022-10-28T01:54:37;18.30;99.90
20839;DHT22;10580;51.092;6.828;2022-10-28T01:57:05;18.20;99.90
20839;DHT22;10580;51.092;6.828;2022-10-28T01:59:32;18.20;99.90
20839;DHT22;10580;51.092;6.828;2022-10-28T02:01:58;18.20;99.90
20839;DHT22;10580;51.092;6.828;2022-10-28T02:04:24;18.20;99.90
20839;DHT22;10580;51.092;6.828;2022-10-28T02:06:53;18.20;99.90
20839;DHT22;10580;51.092;6.828;2022-10-28T02:14:55;18.20;99.90
20839;DHT22;10580;51.092;6.828;2022-10-28T02:20:34;18.10;99.90
20839;DHT22;10580;51.092;6.828;2022-10-28T02:26:06;17.90;99.90
20839;DHT22;10580;51.092;6.828;2022-10-28T02:28:39;17.90;99.90
20839;DHT22;10580;51.092;6.828;2022-10-28T02:31:17;17.80;99.90
20839;DHT22;10580;51.092;6.828;2022-10-28T02:33:49;17.70;99.90
20839;DHT22;10580;51.092;6.828;2022-10-28T02:36:18;17.60;99.90
20839;DHT22;10580;51.092;6.828;2022-10-28T02:38:48;17.60;99.90
20839;DHT22;10580;51.092;6.828;2022-10-28T02:41:32;17.50;99.90
20839;DHT22;10580;51.092;6.828;2022-10-28T02:44:04;17.50;99.90
20839;DHT22;10580;51.092;6.828;2022-10-28T02:46:32;17.40;99.90
20839;DHT22;10580;51.092;6.828;2022-10-28T02:49:08;17.40;99.90
20839;DHT22;10580;51.092;6.828;2022-10-28T02:51:39;17.30;99.90
20839;DHT22;10580;51.092;6.828;2022-10-28T02:54:12;17.30;99.90
20839;DHT22;10580;51.092;6.828;2022-10-28T02:56:55;17.30;99.90
20839;DHT22;10580;51.092;6.828;2022-10-28T02:59:24;17.20;99.90
20839;DHT22;10580;51.092;6.828;2022-10-28T03:01:50;17.20;99.90
20839;DHT22;10580;51.092;6.828;2022-10-28T03:04:16;17.10;99.90
20839;DHT22;10580;51.092;6.828;2022-10-28T03:06:41;17.10;99.90
20839;DHT22;10580;51.092;6.828;2022-10-28T03:09:07;17.10;99.90
20839;DHT22;10580;51.092;6.828;2022-10-28T03:11:32;17.10;99.90
20839;DHT22;10580;51.092;6.828;2022-10-28T03:13:58;17.10;99.90
20839;DHT22;10580;51.092;6.828;2022-10-28T03:16:24;17.20;99.90
20839;DHT22;10580;51.092;6.828;2022-10-28T03:18:51;17.30;99.90
20839;DHT22;10580;51.092;6.828;2022-10-28T03:21:17;17.40;99.90
20839;DHT22;10580;51.092;6.828;2022-10-28T03:23:43;17.50;99.90
20839;DHT22;10580;51.092;6.828;2022-10-28T03:26:08;17.50;99.90
20839;DHT22;10580;51.092;6.828;2022-10-28T03:28:34;17.60;99.90
20839;DHT22;10580;51.092;6.828;2022-10-28T03:30:59;17.70;99.90
20839;DHT22;10580;51.092;6.828;2022-10-28T03:33:25;17.60;99.90
20839;DHT22;10580;51.092;6.828;2022-10-28T03:35:51;17.60;99.90
20839;DHT22;10580;51.092;6.828;2022-10-28T03:38:16;17.50;99.90
20839;DHT22;10580;51.092;6.828;2022-10-28T03:40:42;17.50;99.90
20839;DHT22;10580;51.092;6.828;2022-10-28T03:43:07;17.40;99.90
20839;DHT22;10580;51.092;6.828;2022-10-28T03:45:33;17.40;99.90
20839;DHT22;10580;51.092;6.828;2022-10-28T03:47:58;17.30;99.90
20839;DHT22;10580;51.092;6.828;2022-10-28T03:50:24;17.30;99.90
20839;DHT22;10580;51.092;6.828;2022-10-28T03:52:50;17.30;99.90
20839;DHT22;10580;51.092;6.828;2022-10-28T03:55:16;17.30;99.90
20839;DHT22;10580;51.092;6.828;2022-10-28T03:57:42;17.20;99.90
20839;DHT22;10580;51.092;6.828;2022-10-28T04:00:08;17.20;99.90
20839;DHT22;10580;51.092;6.828;2022-10-28T04:02:33;17.10;99.90
20839;DHT22;10580;51.092;6.828;2022-10-28T04:04:59;17.20;99.90
20839;DHT22;10580;51.092;6.828;2022-10-28T04:07:25;17.20;99.90
20839;DHT22;10580;51.092;6.828;2022-10-28T04:09:50;17.20;99.90
20839;DHT22;10580;51.092;6.828;2022-10-28T04:12:16;17.30;99.90
20839;DHT22;10580;51.092;6.828;2022-10-28T04:14:43;17.30;99.90
20839;DHT22;10580;51.092;6.828;2022-10-28T04:17:08;17.20;99.90
20839;DHT22;10580;51.092;6.828;2022-10-28T04:19:34;17.30;99.90
20839;DHT22;10580;51.092;6.828;2022-10-28T04:21:59;17.30;99.90
20839;DHT22;10580;51.092;6.828;2022-10-28T04:24:25;17.30;99.90
20839;DHT22;10580;51.092;6.828;2022-10-28T04:26:51;17.30;99.90
20839;DHT22;10580;51.092;6.828;2022-10-28T04:29:16;17.30;99.90
20839;DHT22;10580;51.092;6.828;2022-10-28T04:31:43;17.40;99.90
20839;DHT22;10580;51.092;6.828;2022-10-28T04:34:09;17.40;99.90
20839;DHT22;10580;51.092;6.828;2022-10-28T04:36:34;17.40;99.90
20839;DHT22;10580;51.092;6.828;2022-10-28T04:39:00;17.40;99.90
20839;DHT22;10580;51.092;6.828;2022-10-28T04:41:26;17.30;99.90
20839;DHT22;10580;51.092;6.828;2022-10-28T04:43:51;17.30;99.90
20839;DHT22;10580;51.092;6.828;2022-10-28T04:46:17;17.30;99.90
20839;DHT22;10580;51.092;6.828;2022-10-28T04:48:45;17.30;99.90
20839;DHT22;10580;51.092;6.828;2022-10-28T04:51:11;17.20;99.90
20839;DHT22;10580;51.092;6.828;2022-10-28T04:53:37;17.20;99.90
20839;DHT22;10580;51.092;6.828;2022-10-28T04:56:03;17.20;99.90
20839;DHT22;10580;51.092;6.828;2022-10-28T04:58:28;17.20;99.90
20839;DHT22;10580;51.092;6.828;2022-10-28T05:00:54;17.20;99.90
20839;DHT22;10580;51.092;6.828;2022-10-28T05:03:19;17.20;99.90
20839;DHT22;10580;51.092;6.828;2022-10-28T05:05:46;17.20;99.90
20839;DHT22;10580;51.092;6.828;2022-10-28T05:08:11;17.20;99.90
20839;DHT22;10580;51.092;6.828;2022-10-28T05:10:37;17.30;99.90
20839;DHT22;10580;51.092;6.828;2022-10-28T05:16:39;17.20;99.90
20839;DHT22;10580;51.092;6.828;2022-10-28T05:39:53;17.00;99.90
20839;DHT22;10580;51.092;6.828;2022-10-28T05:53:45;17.10;99.90
20839;DHT22;10580;51.092;6.828;2022-10-28T05:56:35;17.00;99.90
20839;DHT22;10580;51.092;6.828;2022-10-28T05:59:12;17.00;99.90
20839;DHT22;10580;51.092;6.828;2022-10-28T06:01:42;16.90;99.90
20839;DHT22;10580;51.092;6.828;2022-10-28T06:04:21;16.90;99.90
20839;DHT22;10580;51.092;6.828;2022-10-28T06:06:57;16.90;99.90
20839;DHT22;10580;51.092;6.828;2022-10-28T06:09:33;16.90;99.90
20839;DHT22;10580;51.092;6.828;2022-10-28T06:12:13;16.90;99.90
20839;DHT22;10580;51.092;6.828;2022-10-28T06:14:43;16.90;99.90
20839;DHT22;10580;51.092;6.828;2022-10-28T06:17:14;16.90;99.90
20839;DHT22;10580;51.092;6.828;2022-10-28T06:19:42;17.00;99.90
20839;DHT22;10580;51.092;6.828;2022-10-28T06:22:11;17.10;99.90
20839;DHT22;10580;51.092;6.828;2022-10-28T06:24:36;17.10;99.90
20839;DHT22;10580;51.092;6.828;2022-10-28T06:27:02;17.10;99.90
20839;DHT22;10580;51.092;6.828;2022-10-28T06:29:39;17.20;99.90
20839;DHT22;10580;51.092;6.828;2022-10-28T06:32:25;17.20;99.90
20839;DHT22;10580;51.092;6.828;2022-10-28T06:34:54;17.20;99.90
20839;DHT22;10580;51.092;6.828;2022-10-28T06:37:20;17.30;99.90
20839;DHT22;10580;51.092;6.828;2022-10-28T06:39:46;17.30;99.90
20839;DHT22;10580;51.092;6.828;2022-10-28T06:42:18;17.30;99.90
20839;DHT22;10580;51.092;6.828;2022-10-28T06:44:49;17.30;99.90
20839;DHT22;10580;51.092;6.828;2022-10-28T06:47:26;17.40;99.90
20839;DHT22;10580;51.092;6.828;2022-10-28T06:49:55;17.40;99.90
20839;DHT22;10580;51.092;6.828;2022-10-28T06:52:24;17.40;99.90
20839;DHT22;10580;51.092;6.828;2022-10-28T06:57:47;17.50;99.90
20839;DHT22;10580;51.092;6.828;2022-10-28T07:00:13;17.60;99.90
20839;DHT22;10580;51.092;6.828;2022-10-28T07:02:39;17.60;99.90
20839;DHT22;10580;51.092;6.828;2022-10-28T07:05:05;17.60;99.90
20839;DHT22;10580;51.092;6.828;2022-10-28T07:07:30;17.70;99.90
20839;DHT22;10580;51.092;6.828;2022-10-28T07:09:56;17.70;99.90
20839;DHT22;10580;51.092;6.828;2022-10-28T07:12:21;17.70;99.90
20839;DHT22;10580;51.092;6.828;2022-10-28T07:14:47;17.70;99.90
20839;DHT22;10580;51.092;6.828;2022-10-28T07:17:12;17.70;99.90
20839;DHT22;10580;51.092;6.828;2022-10-28T07:19:38;17.80;99.90
20839;DHT22;10580;51.092;6.828;2022-10-28T07:22:03;17.80;99.90
20839;DHT22;10580;51.092;6.828;2022-10-28T07:24:29;17.90;99.90
20839;DHT22;10580;51.092;6.828;2022-10-28T07:47:24;18.40;99.90
20839;DHT22;10580;51.092;6.828;2022-10-28T08:20:43;19.70;5.40
20839;DHT22;10580;51.092;6.828;2022-10-28T08:23:08;19.70;6.40
20839;DHT22;10580;51.092;6.828;2022-10-28T08:25:34;19.60;12.20
20839;DHT22;10580;51.092;6.828;2022-10-28T08:28:00;19.70;1.00
20839;DHT22;10580;51.092;6.828;2022-10-28T08:30:25;19.70;4.00
20839;DHT22;10580;51.092;6.828;2022-10-28T08:32:54;19.70;5.60
20839;DHT22;10580;51.092;6.828;2022-10-28T08:35:20;19.80;6.80
20839;DHT22;10580;51.092;6.828;2022-10-28T08:37:52;19.80;9.20
20839;DHT22;10580;51.092;6.828;2022-10-28T08:40:19;19.80;3.20
20839;DHT22;10580;51.092;6.828;2022-10-28T08:42:48;19.70;1.00
20839;DHT22;10580;51.092;6.828;2022-10-28T08:48:25;19.70;7.10
20839;DHT22;10580;51.092;6.828;2022-10-28T08:51:37;19.80;1.00
20839;DHT22;10580;51.092;6.828;2022-10-28T08:56:48;19.80;1.00
20839;DHT22;10580;51.092;6.828;2022-10-28T08:59:18;19.90;1.00
20839;DHT22;10580;51.092;6.828;2022-10-28T09:01:59;20.00;1.00
20839;DHT22;10580;51.092;6.828;2022-10-28T09:06:54;20.80;1.00
20839;DHT22;10580;51.092;6.828;2022-10-28T09:09:21;21.50;1.00
20839;DHT22;10580;51.092;6.828;2022-10-28T09:18:10;23.00;1.00
20839;DHT22;10580;51.092;6.828;2022-10-28T09:21:01;22.70;1.00
20839;DHT22;10580;51.092;6.828;2022-10-28T09:23:32;22.90;1.00
20839;DHT22;10580;51.092;6.828;2022-10-28T09:26:14;22.90;1.00
20839;DHT22;10580;51.092;6.828;2022-10-28T09:31:48;22.70;1.00
20839;DHT22;10580;51.092;6.828;2022-10-28T09:34:27;22.80;1.00
20839;DHT22;10580;51.092;6.828;2022-10-28T09:36:54;22.90;1.00
20839;DHT22;10580;51.092;6.828;2022-10-28T09:39:36;22.60;1.00
20839;DHT22;10580;51.092;6.828;2022-10-28T09:42:04;22.50;1.00
20839;DHT22;10580;51.092;6.828;2022-10-28T09:45:03;22.60;1.00
20839;DHT22;10580;51.092;6.828;2022-10-28T09:47:34;22.80;1.00
20839;DHT22;10580;51.092;6.828;2022-10-28T09:50:03;23.00;1.00
20839;DHT22;10580;51.092;6.828;2022-10-28T09:52:46;23.20;1.00
20839;DHT22;10580;51.092;6.828;2022-10-28T09:55:21;23.20;99.90
20839;DHT22;10580;51.092;6.828;2022-10-28T09:57:47;23.60;1.00
20839;DHT22;10580;51.092;6.828;2022-10-28T10:00:13;23.90;99.90
20839;DHT22;10580;51.092;6.828;2022-10-28T10:02:54;24.10;99.90
20839;DHT22;10580;51.092;6.828;2022-10-28T10:05:21;24.20;1.00
20839;DHT22;10580;51.092;6.828;2022-10-28T10:08:02;24.30;1.00
20839;DHT22;10580;51.092;6.828;2022-10-28T10:10:31;24.30;1.00
20839;DHT22;10580;51.092;6.828;2022-10-28T10:13:01;24.20;1.00
20839;DHT22;10580;51.092;6.828;2022-10-28T10:15:50;24.00;1.00
20839;DHT22;10580;51.092;6.828;2022-10-28T10:18:30;23.60;22.90
20839;DHT22;10580;51.092;6.828;2022-10-28T10:20:59;23.20;99.90
20839;DHT22;10580;51.092;6.828;2022-10-28T10:23:32;23.00;1.00
20839;DHT22;10580;51.092;6.828;2022-10-28T10:26:02;22.80;1.00
20839;DHT22;10580;51.092;6.828;2022-10-28T10:28:29;22.80;1.00
20839;DHT22;10580;51.092;6.828;2022-10-28T10:30:57;22.70;1.00
20839;DHT22;10580;51.092;6.828;2022-10-28T10:33:30;22.60;1.00
20839;DHT22;10580;51.092;6.828;2022-10-28T10:36:14;22.60;1.00
20839;DHT22;10580;51.092;6.828;2022-10-28T10:38:50;22.60;1.00
20839;DHT22;10580;51.092;6.828;2022-10-28T10:44:00;22.80;1.00
20839;DHT22;10580;51.092;6.828;2022-10-28T10:46:26;22.70;1.00
20839;DHT22;10580;51.092;6.828;2022-10-28T10:49:13;22.80;1.00
20839;DHT22;10580;51.092;6.828;2022-10-28T10:51:49;22.80;1.00
20839;DHT22;10580;51.092;6.828;2022-10-28T10:54:15;22.60;1.00
20839;DHT22;10580;51.092;6.828;2022-10-28T10:56:43;22.60;1.00
20839;DHT22;10580;51.092;6.828;2022-10-28T11:01:45;22.50;1.00
20839;DHT22;10580;51.092;6.828;2022-10-28T11:04:17;22.60;1.00
20839;DHT22;10580;51.092;6.828;2022-10-28T11:06:48;22.70;1.00
20839;DHT22;10580;51.092;6.828;2022-10-28T11:09:27;22.80;1.00
20839;DHT22;10580;51.092;6.828;2022-10-28T11:11:54;22.80;1.00
20839;DHT22;10580;51.092;6.828;2022-10-28T11:14:26;22.90;1.00
20839;DHT22;10580;51.092;6.828;2022-10-28T11:16:55;22.90;1.00
20839;DHT22;10580;51.092;6.828;2022-10-28T11:27:38;23.20;1.00
20839;DHT22;10580;51.092;6.828;2022-10-28T11:30:19;23.30;1.00
20839;DHT22;10580;51.092;6.828;2022-10-28T11:35:31;23.40;1.00
20839;DHT22;10580;51.092;6.828;2022-10-28T11:38:13;23.60;1.00
20839;DHT22;10580;51.092;6.828;2022-10-28T11:43:52;23.80;1.00
20839;DHT22;10580;51.092;6.828;2022-10-28T11:46:37;23.90;99.90
20839;DHT22;10580;51.092;6.828;2022-10-28T11:51:55;24.40;99.90
20839;DHT22;10580;51.092;6.828;2022-10-28T11:57:53;25.10;1.00
20839;DHT22;10580;51.092;6.828;2022-10-28T12:06:13;24.80;1.00
20839;DHT22;10580;51.092;6.828;2022-10-28T12:12:21;24.70;99.90
20839;DHT22;10580;51.092;6.828;2022-10-28T12:15:00;24.70;6.00
20839;DHT22;10580;51.092;6.828;2022-10-28T12:18:05;24.70;1.00
20839;DHT22;10580;51.092;6.828;2022-10-28T12:23:38;24.90;99.90
20839;DHT22;10580;51.092;6.828;2022-10-28T12:26:08;24.90;99.90
20839;DHT22;10580;51.092;6.828;2022-10-28T12:28:50;25.00;1.00
20839;DHT22;10580;51.092;6.828;2022-10-28T12:31:25;25.00;99.90
20839;DHT22;10580;51.092;6.828;2022-10-28T12:33:55;25.10;99.90
20839;DHT22;10580;51.092;6.828;2022-10-28T12:36:31;25.00;1.00
20839;DHT22;10580;51.092;6.828;2022-10-28T12:39:18;25.10;1.00
20839;DHT22;10580;51.092;6.828;2022-10-28T12:41:54;25.10;1.00
20839;DHT22;10580;51.092;6.828;2022-10-28T12:44:22;25.10;1.00
20839;DHT22;10580;51.092;6.828;2022-10-28T13:00:39;25.10;1.00
20839;DHT22;10580;51.092;6.828;2022-10-28T13:03:11;25.20;1.00
20839;DHT22;10580;51.092;6.828;2022-10-28T13:10:56;25.10;99.90
20839;DHT22;10580;51.092;6.828;2022-10-28T13:13:36;25.00;1.00
20839;DHT22;10580;51.092;6.828;2022-10-28T13:21:47;24.80;99.90
20839;DHT22;10580;51.092;6.828;2022-10-28T13:26:55;24.70;13.00
20839;DHT22;10580;51.092;6.828;2022-10-28T13:29:28;24.90;1.00
20839;DHT22;10580;51.092;6.828;2022-10-28T13:31:55;24.90;1.00
20839;DHT22;10580;51.092;6.828;2022-10-28T13:41:26;25.30;99.90
20839;DHT22;10580;51.092;6.828;2022-10-28T13:43:58;25.40;99.90
20839;DHT22;10580;51.092;6.828;2022-10-28T13:49:27;25.80;99.90
20839;DHT22;10580;51.092;6.828;2022-10-28T13:52:19;25.80;65.00
20839;DHT22;10580;51.092;6.828;2022-10-28T13:57:35;25.70;5.90
20839;DHT22;10580;51.092;6.828;2022-10-28T14:00:05;25.60;99.90
20839;DHT22;10580;51.092;6.828;2022-10-28T14:02:40;25.30;99.90
20839;DHT22;10580;51.092;6.828;2022-10-28T14:05:07;25.10;1.00
20839;DHT22;10580;51.092;6.828;2022-10-28T14:07:35;25.00;1.00
20839;DHT22;10580;51.092;6.828;2022-10-28T14:10:21;24.90;20.70
20839;DHT22;10580;51.092;6.828;2022-10-28T14:12:51;24.70;99.90
20839;DHT22;10580;51.092;6.828;2022-10-28T14:18:22;24.60;1.00
20839;DHT22;10580;51.092;6.828;2022-10-28T14:33:36;24.10;1.00
20839;DHT22;10580;51.092;6.828;2022-10-28T14:44:25;23.60;1.00
20839;DHT22;10580;51.092;6.828;2022-10-28T14:50:48;23.40;1.00
20839;DHT22;10580;51.092;6.828;2022-10-28T14:53:33;23.30;99.90
20839;DHT22;10580;51.092;6.828;2022-10-28T14:56:04;23.20;1.00
20839;DHT22;10580;51.092;6.828;2022-10-28T14:58:40;23.20;1.00
20839;DHT22;10580;51.092;6.828;2022-10-28T15:01:38;23.10;1.00
20839;DHT22;10580;51.092;6.828;2022-10-28T15:04:12;23.00;1.00
20839;DHT22;10580;51.092;6.828;2022-10-28T15:06:40;23.00;99.90
20839;DHT22;10580;51.092;6.828;2022-10-28T15:12:05;22.80;99.90
20839;DHT22;10580;51.092;6.828;2022-10-28T15:16:57;22.70;99.90
20839;DHT22;10580;51.092;6.828;2022-10-28T15:19:26;22.70;99.90
20839;DHT22;10580;51.092;6.828;2022-10-28T15:24:29;22.50;1.00
20839;DHT22;10580;51.092;6.828;2022-10-28T15:26:55;22.40;1.00
20839;DHT22;10580;51.092;6.828;2022-10-28T15:29:22;22.30;1.00
20839;DHT22;10580;51.092;6.828;2022-10-28T15:32:08;22.30;1.00
20839;DHT22;10580;51.092;6.828;2022-10-28T15:34:35;22.20;1.00
20839;DHT22;10580;51.092;6.828;2022-10-28T15:37:01;22.10;1.00
20839;DHT22;10580;51.092;6.828;2022-10-28T15:39:26;22.00;1.00
20839;DHT22;10580;51.092;6.828;2022-10-28T15:41:52;21.90;1.00
20839;DHT22;10580;51.092;6.828;2022-10-28T15:44:36;21.90;1.00
20839;DHT22;10580;51.092;6.828;2022-10-28T15:47:18;21.90;1.00
20839;DHT22;10580;51.092;6.828;2022-10-28T15:50:01;21.80;1.00
20839;DHT22;10580;51.092;6.828;2022-10-28T15:52:40;21.70;1.00
20839;DHT22;10580;51.092;6.828;2022-10-28T15:57:50;21.60;1.00
20839;DHT22;10580;51.092;6.828;2022-10-28T16:00:27;21.50;1.00
20839;DHT22;10580;51.092;6.828;2022-10-28T16:02:58;21.40;1.00
20839;DHT22;10580;51.092;6.828;2022-10-28T16:08:30;21.20;1.00
20839;DHT22;10580;51.092;6.828;2022-10-28T16:11:02;21.10;1.00
20839;DHT22;10580;51.092;6.828;2022-10-28T16:13:48;21.00;1.00
20839;DHT22;10580;51.092;6.828;2022-10-28T16:16:23;20.90;1.00
20839;DHT22;10580;51.092;6.828;2022-10-28T16:19:07;20.80;1.00
20839;DHT22;10580;51.092;6.828;2022-10-28T16:21:34;20.70;1.00
20839;DHT22;10580;51.092;6.828;2022-10-28T16:24:02;20.50;1.00
20839;DHT22;10580;51.092;6.828;2022-10-28T16:26:29;20.50;1.00
20839;DHT22;10580;51.092;6.828;2022-10-28T16:28:55;20.40;1.00
20839;DHT22;10580;51.092;6.828;2022-10-28T16:31:23;20.30;1.00
20839;DHT22;10580;51.092;6.828;2022-10-28T16:33:50;20.20;1.00
20839;DHT22;10580;51.092;6.828;2022-10-28T16:36:15;20.20;1.00
20839;DHT22;10580;51.092;6.828;2022-10-28T16:38:41;20.20;1.00
20839;DHT22;10580;51.092;6.828;2022-10-28T16:41:15;20.10;1.00
20839;DHT22;10580;51.092;6.828;2022-10-28T16:43:42;20.00;1.00
20839;DHT22;10580;51.092;6.828;2022-10-28T16:46:08;20.00;1.00
20839;DHT22;10580;51.092;6.828;2022-10-28T16:48:35;19.90;7.90
20839;DHT22;10580;51.092;6.828;2022-10-28T16:51:13;19.80;7.50
20839;DHT22;10580;51.092;6.828;2022-10-28T16:53:54;19.70;1.20
20839;DHT22;10580;51.092;6.828;2022-10-28T17:07:43;19.30;27.30
20839;DHT22;10580;51.092;6.828;2022-10-28T17:25:07;18.90;70.90
20839;DHT22;10580;51.092;6.828;2022-10-28T18:25:05;17.70;99.90
20839;DHT22;10580;51.092;6.828;2022-10-28T18:31:43;17.60;99.90
20839;DHT22;10580;51.092;6.828;2022-10-28T18:34:45;17.40;99.90
20839;DHT22;10580;51.092;6.828;2022-10-28T19:14:18;17.00;99.90
20839;DHT22;10580;51.092;6.828;2022-10-28T19:41:40;16.90;99.90
20839;DHT22;10580;51.092;6.828;2022-10-28T19:58:18;16.90;99.90
20839;DHT22;10580;51.092;6.828;2022-10-28T20:00:43;16.90;99.90
20839;DHT22;10580;51.092;6.828;2022-10-28T20:03:09;16.90;99.90
20839;DHT22;10580;51.092;6.828;2022-10-28T20:05:35;16.90;99.90
20839;DHT22;10580;51.092;6.828;2022-10-28T20:08:01;16.90;99.90
20839;DHT22;10580;51.092;6.828;2022-10-28T20:10:26;16.90;99.90
20839;DHT22;10580;51.092;6.828;2022-10-28T20:12:52;16.90;99.90
20839;DHT22;10580;51.092;6.828;2022-10-28T20:15:17;16.80;99.90
20839;DHT22;10580;51.092;6.828;2022-10-28T20:17:43;16.80;99.90
20839;DHT22;10580;51.092;6.828;2022-10-28T20:20:09;16.80;99.90
20839;DHT22;10580;51.092;6.828;2022-10-28T20:22:38;16.80;99.90
20839;DHT22;10580;51.092;6.828;2022-10-28T20:25:04;16.80;99.90
20839;DHT22;10580;51.092;6.828;2022-10-28T20:27:33;16.80;99.90
20839;DHT22;10580;51.092;6.828;2022-10-28T20:29:58;16.70;99.90
20839;DHT22;10580;51.092;6.828;2022-10-28T20:32:25;16.70;99.90
20839;DHT22;10580;51.092;6.828;2022-10-28T20:34:51;16.80;99.90
20839;DHT22;10580;51.092;6.828;2022-10-28T20:37:17;16.80;99.90
20839;DHT22;10580;51.092;6.828;2022-10-28T20:39:42;16.70;99.90
20839;DHT22;10580;51.092;6.828;2022-10-28T20:42:08;16.70;99.90
20839;DHT22;10580;51.092;6.828;2022-10-28T20:44:34;16.70;99.90
20839;DHT22;10580;51.092;6.828;2022-10-28T20:46:59;16.70;99.90
20839;DHT22;10580;51.092;6.828;2022-10-28T20:49:25;16.70;99.90
20839;DHT22;10580;51.092;6.828;2022-10-28T20:51:50;16.70;99.90
20839;DHT22;10580;51.092;6.828;2022-10-28T20:54:16;16.80;99.90
20839;DHT22;10580;51.092;6.828;2022-10-28T20:56:43;16.80;99.90
20839;DHT22;10580;51.092;6.828;2022-10-28T20:59:08;16.80;99.90
20839;DHT22;10580;51.092;6.828;2022-10-28T21:01:36;16.70;99.90
20839;DHT22;10580;51.092;6.828;2022-10-28T21:04:04;16.70;99.90
20839;DHT22;10580;51.092;6.828;2022-10-28T21:06:30;16.70;99.90
20839;DHT22;10580;51.092;6.828;2022-10-28T21:08:56;16.60;99.90
20839;DHT22;10580;51.092;6.828;2022-10-28T21:11:23;16.60;99.90
20839;DHT22;10580;51.092;6.828;2022-10-28T21:13:50;16.50;99.90
20839;DHT22;10580;51.092;6.828;2022-10-28T21:16:17;16.50;99.90
20839;DHT22;10580;51.092;6.828;2022-10-28T21:18:43;16.50;99.90
20839;DHT22;10580;51.092;6.828;2022-10-28T21:21:17;16.40;99.90
20839;DHT22;10580;51.092;6.828;2022-10-28T21:23:53;16.40;99.90
20839;DHT22;10580;51.092;6.828;2022-10-28T21:26:19;16.30;99.90
20839;DHT22;10580;51.092;6.828;2022-10-28T21:28:51;16.30;99.90
20839;DHT22;10580;51.092;6.828;2022-10-28T21:31:17;16.30;99.90
20839;DHT22;10580;51.092;6.828;2022-10-28T21:33:44;16.30;99.90
20839;DHT22;10580;51.092;6.828;2022-10-28T21:36:15;16.30;99.90
20839;DHT22;10580;51.092;6.828;2022-10-28T21:38:42;16.30;99.90
20839;DHT22;10580;51.092;6.828;2022-10-28T21:41:11;16.30;99.90
20839;DHT22;10580;51.092;6.828;2022-10-28T21:43:39;16.30;99.90
20839;DHT22;10580;51.092;6.828;2022-10-28T21:46:05;16.20;99.90
20839;DHT22;10580;51.092;6.828;2022-10-28T21:48:32;16.20;99.90
20839;DHT22;10580;51.092;6.828;2022-10-28T21:51:00;16.20;99.90
20839;DHT22;10580;51.092;6.828;2022-10-28T21:53:28;16.20;99.90
20839;DHT22;10580;51.092;6.828;2022-10-28T21:56:04;16.20;99.90
20839;DHT22;10580;51.092;6.828;2022-10-28T21:58:30;16.20;99.90
20839;DHT22;10580;51.092;6.828;2022-10-28T22:01:14;16.20;99.90
20839;DHT22;10580;51.092;6.828;2022-10-28T22:03:40;16.20;99.90
20839;DHT22;10580;51.092;6.828;2022-10-28T22:06:05;16.10;99.90
20839;DHT22;10580;51.092;6.828;2022-10-28T22:08:32;16.10;99.90
20839;DHT22;10580;51.092;6.828;2022-10-28T22:11:06;16.10;99.90
20839;DHT22;10580;51.092;6.828;2022-10-28T22:13:33;16.10;99.90
20839;DHT22;10580;51.092;6.828;2022-10-28T22:16:00;16.10;99.90
20839;DHT22;10580;51.092;6.828;2022-10-28T22:18:27;16.10;99.90
20839;DHT22;10580;51.092;6.828;2022-10-28T22:20:53;16.10;99.90
20839;DHT22;10580;51.092;6.828;2022-10-28T22:23:19;16.10;99.90
20839;DHT22;10580;51.092;6.828;2022-10-28T22:25:45;16.10;99.90
20839;DHT22;10580;51.092;6.828;2022-10-28T22:28:10;16.00;99.90
20839;DHT22;10580;51.092;6.828;2022-10-28T22:30:36;16.00;99.90
20839;DHT22;10580;51.092;6.828;2022-10-28T22:33:02;16.00;99.90
20839;DHT22;10580;51.092;6.828;2022-10-28T22:35:27;16.00;99.90
20839;DHT22;10580;51.092;6.828;2022-10-28T22:37:53;15.90;99.90
20839;DHT22;10580;51.092;6.828;2022-10-28T22:40:18;15.90;99.90
20839;DHT22;10580;51.092;6.828;2022-10-28T22:42:44;15.90;99.90
20839;DHT22;10580;51.092;6.828;2022-10-28T22:45:09;15.90;99.90
20839;DHT22;10580;51.092;6.828;2022-10-28T22:47:35;15.80;99.90
20839;DHT22;10580;51.092;6.828;2022-10-28T22:50:01;15.80;99.90
20839;DHT22;10580;51.092;6.828;2022-10-28T22:52:26;15.80;99.90
20839;DHT22;10580;51.092;6.828;2022-10-28T22:54:52;15.80;99.90